sensor_id;sensor_type;location;lat;lon;timestamp;P1;durP1;ratioP1;P2;durP2;ratioP2
20928;SDS011;21895;47.072;15.132;2024-03-23T00:55:40;5.90;;;2.23;;
20928;SDS011;21895;47.072;15.132;2024-03-23T00:58:09;11.30;;;2.07;;
20928;SDS011;21895;47.072;15.132;2024-03-23T01:00:36;5.27;;;2.40;;
20928;SDS011;21895;47.072;15.132;2024-03-23T01:03:02;4.87;;;2.20;;
20928;SDS011;21895;47.072;15.132;2024-03-23T01:05:29;5.83;;;2.57;;
20928;SDS011;21895;47.072;15.132;2024-03-23T01:07:56;6.40;;;2.40;;
20928;SDS011;21895;47.072;15.132;2024-03-23T01:10:23;4.13;;;1.97;;
20928;SDS011;21895;47.072;15.132;2024-03-23T01:12:49;5.77;;;1.80;;
20928;SDS011;21895;47.072;15.132;2024-03-23T01:15:16;2.97;;;1.80;;
20928;SDS011;21895;47.072;15.132;2024-03-23T01:17:42;11.33;;;2.50;;
20928;SDS011;21895;47.072;15.132;2024-03-23T01:20:09;5.77;;;2.40;;
20928;SDS011;21895;47.072;15.132;2024-03-23T01:22:36;4.17;;;1.90;;
20928;SDS011;21895;47.072;15.132;2024-03-23T01:25:02;4.13;;;1.87;;
20928;SDS011;21895;47.072;15.132;2024-03-23T01:27:29;3.63;;;1.77;;
20928;SDS011;21895;47.072;15.132;2024-03-23T01:29:56;3.33;;;2.03;;
20928;SDS011;21895;47.072;15.132;2024-03-23T01:32:22;4.90;;;2.63;;
20928;SDS011;21895;47.072;15.132;2024-03-23T01:34:49;4.67;;;2.03;;
20928;SDS011;21895;47.072;15.132;2024-03-23T01:37:15;4.83;;;2.20;;
20928;SDS011;21895;47.072;15.132;2024-03-23T01:39:42;4.23;;;2.10;;
20928;SDS011;21895;47.072;15.132;2024-03-23T01:42:08;6.20;;;2.10;;
20928;SDS011;21895;47.072;15.132;2024-03-23T01:44:35;6.17;;;1.90;;
20928;SDS011;21895;47.072;15.132;2024-03-23T01:47:02;31.27;;;2.67;;
20928;SDS011;21895;47.072;15.132;2024-03-23T01:49:29;2.83;;;1.90;;
20928;SDS011;21895;47.072;15.132;2024-03-23T01:51:56;5.47;;;2.07;;
20928;SDS011;21895;47.072;15.132;2024-03-23T01:54:23;2.70;;;1.70;;
20928;SDS011;21895;47.072;15.132;2024-03-23T01:56:50;2.50;;;1.60;;
20928;SDS011;21895;47.072;15.132;2024-03-23T01:59:16;6.33;;;2.07;;
20928;SDS011;21895;47.072;15.132;2024-03-23T02:01:43;4.50;;;1.77;;
20928;SDS011;21895;47.072;15.132;2024-03-23T02:04:13;3.50;;;1.83;;
20928;SDS011;21895;47.072;15.132;2024-03-23T02:06:39;7.77;;;2.40;;
20928;SDS011;21895;47.072;15.132;2024-03-23T02:09:06;4.53;;;1.93;;
20928;SDS011;21895;47.072;15.132;2024-03-23T02:11:32;2.30;;;1.50;;
20928;SDS011;21895;47.072;15.132;2024-03-23T02:13:59;5.47;;;2.20;;
20928;SDS011;21895;47.072;15.132;2024-03-23T02:16:25;4.77;;;1.80;;
20928;SDS011;21895;47.072;15.132;2024-03-23T02:18:52;4.90;;;2.13;;
20928;SDS011;21895;47.072;15.132;2024-03-23T02:21:18;3.93;;;1.80;;
20928;SDS011;21895;47.072;15.132;2024-03-23T02:23:45;3.57;;;1.50;;
20928;SDS011;21895;47.072;15.132;2024-03-23T02:26:12;4.93;;;2.23;;
20928;SDS011;21895;47.072;15.132;2024-03-23T02:28:39;5.57;;;2.10;;
20928;SDS011;21895;47.072;15.132;2024-03-23T02:31:06;3.67;;;2.03;;
20928;SDS011;21895;47.072;15.132;2024-03-23T02:33:32;2.93;;;1.77;;
20928;SDS011;21895;47.072;15.132;2024-03-23T02:36:00;3.07;;;1.97;;
20928;SDS011;21895;47.072;15.132;2024-03-23T02:38:26;2.90;;;1.67;;
20928;SDS011;21895;47.072;15.132;2024-03-23T02:40:53;3.37;;;1.80;;
20928;SDS011;21895;47.072;15.132;2024-03-23T02:43:19;7.37;;;1.60;;
20928;SDS011;21895;47.072;15.132;2024-03-23T02:45:46;4.33;;;1.70;;
20928;SDS011;21895;47.072;15.132;2024-03-23T02:48:13;3.27;;;1.90;;
20928;SDS011;21895;47.072;15.132;2024-03-23T02:50:39;4.23;;;1.57;;
20928;SDS011;21895;47.072;15.132;2024-03-23T02:53:06;4.87;;;2.20;;
20928;SDS011;21895;47.072;15.132;2024-03-23T02:55:32;6.73;;;1.57;;
20928;SDS011;21895;47.072;15.132;2024-03-23T02:57:59;2.53;;;1.57;;
20928;SDS011;21895;47.072;15.132;2024-03-23T03:00:27;6.83;;;2.20;;
20928;SDS011;21895;47.072;15.132;2024-03-23T03:02:54;3.33;;;1.90;;
20928;SDS011;21895;47.072;15.132;2024-03-23T03:05:21;3.13;;;1.57;;
20928;SDS011;21895;47.072;15.132;2024-03-23T03:07:47;5.90;;;1.87;;
20928;SDS011;21895;47.072;15.132;2024-03-23T03:10:17;3.27;;;1.73;;
20928;SDS011;21895;47.072;15.132;2024-03-23T03:12:44;3.43;;;1.80;;
20928;SDS011;21895;47.072;15.132;2024-03-23T03:15:11;3.27;;;1.67;;
20928;SDS011;21895;47.072;15.132;2024-03-23T03:17:38;4.87;;;1.77;;
20928;SDS011;21895;47.072;15.132;2024-03-23T03:20:05;4.67;;;1.57;;
20928;SDS011;21895;47.072;15.132;2024-03-23T03:22:32;3.33;;;1.60;;
20928;SDS011;21895;47.072;15.132;2024-03-23T03:24:59;3.60;;;1.77;;
20928;SDS011;21895;47.072;15.132;2024-03-23T03:27:26;13.00;;;1.80;;
20928;SDS011;21895;47.072;15.132;2024-03-23T03:29:52;4.20;;;1.90;;
20928;SDS011;21895;47.072;15.132;2024-03-23T03:32:19;2.93;;;1.60;;
20928;SDS011;21895;47.072;15.132;2024-03-23T03:34:45;6.30;;;2.20;;
20928;SDS011;21895;47.072;15.132;2024-03-23T03:37:12;5.40;;;1.87;;
20928;SDS011;21895;47.072;15.132;2024-03-23T03:39:38;5.93;;;2.40;;
20928;SDS011;21895;47.072;15.132;2024-03-23T03:42:05;4.37;;;1.57;;
20928;SDS011;21895;47.072;15.132;2024-03-23T03:44:33;6.30;;;1.77;;
20928;SDS011;21895;47.072;15.132;2024-03-23T03:46:59;2.10;;;1.47;;
20928;SDS011;21895;47.072;15.132;2024-03-23T03:49:28;3.27;;;1.57;;
20928;SDS011;21895;47.072;15.132;2024-03-23T03:51:55;4.03;;;1.97;;
20928;SDS011;21895;47.072;15.132;2024-03-23T03:54:22;2.93;;;1.70;;
20928;SDS011;21895;47.072;15.132;2024-03-23T03:56:48;2.90;;;1.67;;
20928;SDS011;21895;47.072;15.132;2024-03-23T03:59:18;4.57;;;2.13;;
20928;SDS011;21895;47.072;15.132;2024-03-23T04:01:45;3.47;;;1.53;;
20928;SDS011;21895;47.072;15.132;2024-03-23T04:04:12;2.77;;;1.60;;
20928;SDS011;21895;47.072;15.132;2024-03-23T04:06:39;3.07;;;1.70;;
20928;SDS011;21895;47.072;15.132;2024-03-23T04:09:06;4.50;;;1.87;;
20928;SDS011;21895;47.072;15.132;2024-03-23T04:11:32;2.83;;;1.70;;
20928;SDS011;21895;47.072;15.132;2024-03-23T04:13:59;3.70;;;1.70;;
20928;SDS011;21895;47.072;15.132;2024-03-23T04:16:28;2.00;;;1.47;;
20928;SDS011;21895;47.072;15.132;2024-03-23T04:19:00;3.00;;;1.77;;
20928;SDS011;21895;47.072;15.132;2024-03-23T04:21:26;7.27;;;1.43;;
20928;SDS011;21895;47.072;15.132;2024-03-23T04:23:53;6.67;;;1.90;;
20928;SDS011;21895;47.072;15.132;2024-03-23T04:26:19;2.77;;;1.43;;
20928;SDS011;21895;47.072;15.132;2024-03-23T04:28:46;2.87;;;1.60;;
20928;SDS011;21895;47.072;15.132;2024-03-23T04:31:12;2.50;;;1.47;;
20928;SDS011;21895;47.072;15.132;2024-03-23T04:33:39;10.70;;;1.90;;
20928;SDS011;21895;47.072;15.132;2024-03-23T04:36:06;4.30;;;2.13;;
20928;SDS011;21895;47.072;15.132;2024-03-23T04:38:32;3.03;;;1.73;;
20928;SDS011;21895;47.072;15.132;2024-03-23T04:40:59;3.80;;;1.80;;
20928;SDS011;21895;47.072;15.132;2024-03-23T04:43:27;5.63;;;1.70;;
20928;SDS011;21895;47.072;15.132;2024-03-23T04:45:54;3.07;;;1.70;;
20928;SDS011;21895;47.072;15.132;2024-03-23T04:48:21;3.00;;;1.70;;
20928;SDS011;21895;47.072;15.132;2024-03-23T04:50:49;5.73;;;2.33;;
20928;SDS011;21895;47.072;15.132;2024-03-23T04:53:20;3.93;;;1.80;;
20928;SDS011;21895;47.072;15.132;2024-03-23T04:55:46;5.70;;;1.57;;
20928;SDS011;21895;47.072;15.132;2024-03-23T04:58:13;5.63;;;2.20;;
20928;SDS011;21895;47.072;15.132;2024-03-23T05:00:39;3.07;;;1.23;;
20928;SDS011;21895;47.072;15.132;2024-03-23T05:03:06;2.30;;;1.67;;
20928;SDS011;21895;47.072;15.132;2024-03-23T05:05:32;4.83;;;1.53;;
20928;SDS011;21895;47.072;15.132;2024-03-23T05:07:59;4.20;;;1.80;;
20928;SDS011;21895;47.072;15.132;2024-03-23T05:10:25;6.07;;;2.00;;
20928;SDS011;21895;47.072;15.132;2024-03-23T05:12:52;6.37;;;1.67;;
20928;SDS011;21895;47.072;15.132;2024-03-23T05:15:18;5.97;;;2.10;;
20928;SDS011;21895;47.072;15.132;2024-03-23T05:17:45;2.93;;;1.50;;
20928;SDS011;21895;47.072;15.132;2024-03-23T05:20:11;3.10;;;1.60;;
20928;SDS011;21895;47.072;15.132;2024-03-23T05:22:38;2.83;;;1.63;;
20928;SDS011;21895;47.072;15.132;2024-03-23T05:25:06;3.13;;;1.50;;
20928;SDS011;21895;47.072;15.132;2024-03-23T05:27:33;2.67;;;1.47;;
20928;SDS011;21895;47.072;15.132;2024-03-23T05:29:59;3.13;;;1.60;;
20928;SDS011;21895;47.072;15.132;2024-03-23T05:32:26;5.63;;;2.07;;
20928;SDS011;21895;47.072;15.132;2024-03-23T05:34:53;5.63;;;1.70;;
20928;SDS011;21895;47.072;15.132;2024-03-23T05:37:22;2.30;;;1.63;;
20928;SDS011;21895;47.072;15.132;2024-03-23T05:39:49;4.93;;;2.13;;
20928;SDS011;21895;47.072;15.132;2024-03-23T05:42:16;3.00;;;1.70;;
20928;SDS011;21895;47.072;15.132;2024-03-23T05:44:46;3.47;;;1.83;;
20928;SDS011;21895;47.072;15.132;2024-03-23T05:47:13;3.77;;;1.90;;
20928;SDS011;21895;47.072;15.132;2024-03-23T05:49:42;2.53;;;1.60;;
20928;SDS011;21895;47.072;15.132;2024-03-23T05:52:09;4.27;;;1.87;;
20928;SDS011;21895;47.072;15.132;2024-03-23T05:54:36;4.10;;;1.70;;
20928;SDS011;21895;47.072;15.132;2024-03-23T05:57:03;3.10;;;1.80;;
20928;SDS011;21895;47.072;15.132;2024-03-23T05:59:30;3.07;;;1.60;;
20928;SDS011;21895;47.072;15.132;2024-03-23T06:01:56;3.97;;;1.97;;
20928;SDS011;21895;47.072;15.132;2024-03-23T06:04:23;5.97;;;1.90;;
20928;SDS011;21895;47.072;15.132;2024-03-23T06:06:50;5.40;;;2.10;;
20928;SDS011;21895;47.072;15.132;2024-03-23T06:09:18;3.77;;;1.57;;
20928;SDS011;21895;47.072;15.132;2024-03-23T06:11:45;2.37;;;1.47;;
20928;SDS011;21895;47.072;15.132;2024-03-23T06:14:12;3.60;;;1.67;;
20928;SDS011;21895;47.072;15.132;2024-03-23T06:16:38;10.43;;;2.07;;
20928;SDS011;21895;47.072;15.132;2024-03-23T06:19:05;4.60;;;2.10;;
20928;SDS011;21895;47.072;15.132;2024-03-23T06:21:32;3.80;;;1.70;;
20928;SDS011;21895;47.072;15.132;2024-03-23T06:23:59;3.93;;;1.90;;
20928;SDS011;21895;47.072;15.132;2024-03-23T06:26:25;4.33;;;2.17;;
20928;SDS011;21895;47.072;15.132;2024-03-23T06:28:52;4.93;;;1.97;;
20928;SDS011;21895;47.072;15.132;2024-03-23T06:31:19;6.10;;;2.90;;
20928;SDS011;21895;47.072;15.132;2024-03-23T06:33:46;6.13;;;2.73;;
20928;SDS011;21895;47.072;15.132;2024-03-23T06:36:12;11.03;;;3.43;;
20928;SDS011;21895;47.072;15.132;2024-03-23T06:38:41;7.87;;;3.50;;
20928;SDS011;21895;47.072;15.132;2024-03-23T06:41:08;9.37;;;3.13;;
20928;SDS011;21895;47.072;15.132;2024-03-23T06:43:35;7.27;;;2.97;;
20928;SDS011;21895;47.072;15.132;2024-03-23T06:46:01;5.10;;;2.33;;
20928;SDS011;21895;47.072;15.132;2024-03-23T06:48:30;8.00;;;3.33;;
20928;SDS011;21895;47.072;15.132;2024-03-23T06:50:56;6.77;;;2.90;;
20928;SDS011;21895;47.072;15.132;2024-03-23T06:53:23;5.07;;;2.30;;
20928;SDS011;21895;47.072;15.132;2024-03-23T06:55:51;3.83;;;2.20;;
20928;SDS011;21895;47.072;15.132;2024-03-23T06:58:23;10.37;;;2.50;;
20928;SDS011;21895;47.072;15.132;2024-03-23T07:00:50;5.63;;;2.27;;
20928;SDS011;21895;47.072;15.132;2024-03-23T07:03:17;5.40;;;1.97;;
20928;SDS011;21895;47.072;15.132;2024-03-23T07:05:43;6.43;;;2.40;;
20928;SDS011;21895;47.072;15.132;2024-03-23T07:08:11;5.93;;;2.53;;
20928;SDS011;21895;47.072;15.132;2024-03-23T07:10:41;8.13;;;3.07;;
20928;SDS011;21895;47.072;15.132;2024-03-23T07:13:08;9.67;;;3.07;;
20928;SDS011;21895;47.072;15.132;2024-03-23T07:15:37;10.37;;;3.70;;
20928;SDS011;21895;47.072;15.132;2024-03-23T07:18:04;9.40;;;3.37;;
20928;SDS011;21895;47.072;15.132;2024-03-23T07:20:30;8.13;;;3.47;;
20928;SDS011;21895;47.072;15.132;2024-03-23T07:22:57;9.90;;;4.50;;
20928;SDS011;21895;47.072;15.132;2024-03-23T07:25:24;11.77;;;3.97;;
20928;SDS011;21895;47.072;15.132;2024-03-23T07:27:55;7.03;;;3.73;;
20928;SDS011;21895;47.072;15.132;2024-03-23T07:30:22;6.93;;;3.50;;
20928;SDS011;21895;47.072;15.132;2024-03-23T07:32:48;12.13;;;4.30;;
20928;SDS011;21895;47.072;15.132;2024-03-23T07:35:15;7.20;;;3.20;;
20928;SDS011;21895;47.072;15.132;2024-03-23T07:37:42;6.73;;;3.30;;
20928;SDS011;21895;47.072;15.132;2024-03-23T07:40:09;6.03;;;2.53;;
20928;SDS011;21895;47.072;15.132;2024-03-23T07:42:42;6.67;;;2.73;;
20928;SDS011;21895;47.072;15.132;2024-03-23T07:45:09;4.03;;;2.37;;
20928;SDS011;21895;47.072;15.132;2024-03-23T07:47:36;5.73;;;2.73;;
20928;SDS011;21895;47.072;15.132;2024-03-23T07:50:02;6.10;;;2.70;;
20928;SDS011;21895;47.072;15.132;2024-03-23T07:52:29;8.23;;;3.10;;
20928;SDS011;21895;47.072;15.132;2024-03-23T07:54:56;5.77;;;2.53;;
20928;SDS011;21895;47.072;15.132;2024-03-23T07:57:22;5.10;;;2.47;;
20928;SDS011;21895;47.072;15.132;2024-03-23T07:59:49;5.13;;;2.40;;
20928;SDS011;21895;47.072;15.132;2024-03-23T08:02:16;6.20;;;2.53;;
20928;SDS011;21895;47.072;15.132;2024-03-23T08:04:43;6.00;;;2.77;;
20928;SDS011;21895;47.072;15.132;2024-03-23T08:07:09;4.93;;;2.67;;
20928;SDS011;21895;47.072;15.132;2024-03-23T08:09:36;6.73;;;3.17;;
20928;SDS011;21895;47.072;15.132;2024-03-23T08:12:03;7.97;;;2.83;;
20928;SDS011;21895;47.072;15.132;2024-03-23T08:14:30;4.60;;;2.60;;
20928;SDS011;21895;47.072;15.132;2024-03-23T08:16:57;9.50;;;2.70;;
20928;SDS011;21895;47.072;15.132;2024-03-23T08:19:23;8.20;;;3.27;;
20928;SDS011;21895;47.072;15.132;2024-03-23T08:21:50;7.87;;;3.10;;
20928;SDS011;21895;47.072;15.132;2024-03-23T08:24:17;13.65;;;2.87;;
20928;SDS011;21895;47.072;15.132;2024-03-23T08:26:45;4.57;;;2.30;;
20928;SDS011;21895;47.072;15.132;2024-03-23T08:29:11;5.37;;;3.00;;
20928;SDS011;21895;47.072;15.132;2024-03-23T08:31:38;6.80;;;2.30;;
20928;SDS011;21895;47.072;15.132;2024-03-23T08:34:04;9.02;;;2.80;;
20928;SDS011;21895;47.072;15.132;2024-03-23T08:36:31;5.70;;;3.12;;
20928;SDS011;21895;47.072;15.132;2024-03-23T08:38:58;17.02;;;3.22;;
20928;SDS011;21895;47.072;15.132;2024-03-23T08:41:25;6.87;;;2.50;;
20928;SDS011;21895;47.072;15.132;2024-03-23T08:43:51;4.20;;;2.37;;
20928;SDS011;21895;47.072;15.132;2024-03-23T08:46:18;4.93;;;2.62;;
20928;SDS011;21895;47.072;15.132;2024-03-23T08:48:45;5.68;;;2.37;;
20928;SDS011;21895;47.072;15.132;2024-03-23T08:51:14;6.18;;;3.10;;
20928;SDS011;21895;47.072;15.132;2024-03-23T08:53:42;8.93;;;3.95;;
20928;SDS011;21895;47.072;15.132;2024-03-23T08:56:10;9.98;;;3.47;;
20928;SDS011;21895;47.072;15.132;2024-03-23T08:58:37;7.30;;;3.87;;
20928;SDS011;21895;47.072;15.132;2024-03-23T09:01:11;7.03;;;4.03;;
20928;SDS011;21895;47.072;15.132;2024-03-23T09:03:38;12.32;;;4.20;;
20928;SDS011;21895;47.072;15.132;2024-03-23T09:06:09;12.13;;;3.90;;
20928;SDS011;21895;47.072;15.132;2024-03-23T09:08:38;7.97;;;3.30;;
20928;SDS011;21895;47.072;15.132;2024-03-23T09:11:09;7.93;;;3.30;;
20928;SDS011;21895;47.072;15.132;2024-03-23T09:13:39;5.07;;;3.10;;
20928;SDS011;21895;47.072;15.132;2024-03-23T09:16:07;8.18;;;3.50;;
20928;SDS011;21895;47.072;15.132;2024-03-23T09:18:35;8.48;;;3.75;;
20928;SDS011;21895;47.072;15.132;2024-03-23T09:21:03;6.12;;;3.05;;
20928;SDS011;21895;47.072;15.132;2024-03-23T09:23:36;5.18;;;3.08;;
20928;SDS011;21895;47.072;15.132;2024-03-23T09:26:03;7.72;;;3.78;;
20928;SDS011;21895;47.072;15.132;2024-03-23T09:28:30;6.82;;;3.47;;
20928;SDS011;21895;47.072;15.132;2024-03-23T09:31:03;6.18;;;3.37;;
20928;SDS011;21895;47.072;15.132;2024-03-23T09:33:35;5.65;;;2.90;;
20928;SDS011;21895;47.072;15.132;2024-03-23T09:36:05;3.97;;;2.47;;
20928;SDS011;21895;47.072;15.132;2024-03-23T09:38:32;6.53;;;2.90;;
20928;SDS011;21895;47.072;15.132;2024-03-23T09:41:00;3.75;;;2.47;;
20928;SDS011;21895;47.072;15.132;2024-03-23T09:43:32;3.72;;;2.30;;
20928;SDS011;21895;47.072;15.132;2024-03-23T09:45:59;3.67;;;2.22;;
20928;SDS011;21895;47.072;15.132;2024-03-23T09:48:28;4.97;;;2.58;;
20928;SDS011;21895;47.072;15.132;2024-03-23T09:50:55;3.83;;;2.53;;
20928;SDS011;21895;47.072;15.132;2024-03-23T09:53:22;5.55;;;2.20;;
20928;SDS011;21895;47.072;15.132;2024-03-23T09:55:48;8.50;;;2.50;;
20928;SDS011;21895;47.072;15.132;2024-03-23T09:58:15;4.75;;;2.40;;
20928;SDS011;21895;47.072;15.132;2024-03-23T10:00:43;3.72;;;2.25;;
20928;SDS011;21895;47.072;15.132;2024-03-23T10:03:10;4.62;;;2.20;;
20928;SDS011;21895;47.072;15.132;2024-03-23T10:05:37;3.50;;;2.37;;
20928;SDS011;21895;47.072;15.132;2024-03-23T10:10:54;5.60;;;2.40;;
20928;SDS011;21895;47.072;15.132;2024-03-23T10:13:24;4.90;;;2.33;;
20928;SDS011;21895;47.072;15.132;2024-03-23T10:15:56;4.00;;;1.95;;
20928;SDS011;21895;47.072;15.132;2024-03-23T10:18:25;3.40;;;1.92;;
20928;SDS011;21895;47.072;15.132;2024-03-23T10:21:09;4.00;;;1.90;;
20928;SDS011;21895;47.072;15.132;2024-03-23T10:23:39;3.83;;;2.25;;
20928;SDS011;21895;47.072;15.132;2024-03-23T10:29:07;2.50;;;1.87;;
20928;SDS011;21895;47.072;15.132;2024-03-23T10:31:36;6.32;;;2.30;;
20928;SDS011;21895;47.072;15.132;2024-03-23T10:34:03;1.77;;;1.52;;
20928;SDS011;21895;47.072;15.132;2024-03-23T10:36:30;3.12;;;2.00;;
20928;SDS011;21895;47.072;15.132;2024-03-23T10:38:57;3.78;;;2.05;;
20928;SDS011;21895;47.072;15.132;2024-03-23T10:41:28;5.85;;;2.03;;
20928;SDS011;21895;47.072;15.132;2024-03-23T10:43:57;3.47;;;2.30;;
20928;SDS011;21895;47.072;15.132;2024-03-23T10:46:27;2.92;;;2.12;;
20928;SDS011;21895;47.072;15.132;2024-03-23T10:48:54;5.68;;;2.50;;
20928;SDS011;21895;47.072;15.132;2024-03-23T10:51:20;5.10;;;2.33;;
20928;SDS011;21895;47.072;15.132;2024-03-23T10:53:47;5.78;;;2.65;;
20928;SDS011;21895;47.072;15.132;2024-03-23T10:56:14;3.42;;;2.35;;
20928;SDS011;21895;47.072;15.132;2024-03-23T10:58:44;3.70;;;1.95;;
20928;SDS011;21895;47.072;15.132;2024-03-23T11:01:15;4.62;;;2.33;;
20928;SDS011;21895;47.072;15.132;2024-03-23T11:03:45;7.80;;;2.47;;
20928;SDS011;21895;47.072;15.132;2024-03-23T11:06:33;3.87;;;2.15;;
20928;SDS011;21895;47.072;15.132;2024-03-23T11:09:48;7.32;;;2.97;;
20928;SDS011;21895;47.072;15.132;2024-03-23T11:12:25;4.03;;;1.87;;
20928;SDS011;21895;47.072;15.132;2024-03-23T11:15:05;3.25;;;1.85;;
20928;SDS011;21895;47.072;15.132;2024-03-23T11:17:37;3.78;;;1.92;;
20928;SDS011;21895;47.072;15.132;2024-03-23T11:20:04;4.22;;;1.77;;
20928;SDS011;21895;47.072;15.132;2024-03-23T11:22:41;3.30;;;2.00;;
20928;SDS011;21895;47.072;15.132;2024-03-23T11:25:21;4.10;;;1.83;;
20928;SDS011;21895;47.072;15.132;2024-03-23T11:27:50;2.53;;;1.77;;
20928;SDS011;21895;47.072;15.132;2024-03-23T11:30:23;8.15;;;2.30;;
20928;SDS011;21895;47.072;15.132;2024-03-23T11:32:55;4.22;;;2.70;;
20928;SDS011;21895;47.072;15.132;2024-03-23T11:35:36;4.57;;;2.83;;
20928;SDS011;21895;47.072;15.132;2024-03-23T11:38:09;9.35;;;2.67;;
20928;SDS011;21895;47.072;15.132;2024-03-23T11:40:41;8.30;;;2.72;;
20928;SDS011;21895;47.072;15.132;2024-03-23T11:43:18;4.00;;;2.50;;
20928;SDS011;21895;47.072;15.132;2024-03-23T11:45:48;5.18;;;2.50;;
20928;SDS011;21895;47.072;15.132;2024-03-23T11:48:19;4.95;;;2.40;;
20928;SDS011;21895;47.072;15.132;2024-03-23T11:50:48;11.25;;;2.78;;
20928;SDS011;21895;47.072;15.132;2024-03-23T11:53:21;6.47;;;2.90;;
20928;SDS011;21895;47.072;15.132;2024-03-23T11:55:50;5.22;;;2.70;;
20928;SDS011;21895;47.072;15.132;2024-03-23T11:58:26;5.68;;;2.83;;
20928;SDS011;21895;47.072;15.132;2024-03-23T12:00:57;6.57;;;3.00;;
20928;SDS011;21895;47.072;15.132;2024-03-23T12:03:27;5.65;;;2.72;;
20928;SDS011;21895;47.072;15.132;2024-03-23T12:05:56;6.10;;;2.87;;
20928;SDS011;21895;47.072;15.132;2024-03-23T12:08:34;3.45;;;2.50;;
20928;SDS011;21895;47.072;15.132;2024-03-23T12:11:11;4.30;;;2.70;;
20928;SDS011;21895;47.072;15.132;2024-03-23T12:13:43;5.12;;;2.92;;
20928;SDS011;21895;47.072;15.132;2024-03-23T12:16:16;4.95;;;2.97;;
20928;SDS011;21895;47.072;15.132;2024-03-23T12:18:50;14.50;;;3.30;;
20928;SDS011;21895;47.072;15.132;2024-03-23T12:21:16;12.20;;;3.40;;
20928;SDS011;21895;47.072;15.132;2024-03-23T12:23:43;13.70;;;4.12;;
20928;SDS011;21895;47.072;15.132;2024-03-23T12:26:12;8.80;;;3.55;;
20928;SDS011;21895;47.072;15.132;2024-03-23T12:28:39;4.45;;;2.78;;
20928;SDS011;21895;47.072;15.132;2024-03-23T12:31:06;4.72;;;2.75;;
20928;SDS011;21895;47.072;15.132;2024-03-23T12:33:32;6.45;;;2.97;;
20928;SDS011;21895;47.072;15.132;2024-03-23T12:35:59;4.82;;;3.12;;
20928;SDS011;21895;47.072;15.132;2024-03-23T12:38:25;8.30;;;3.53;;
20928;SDS011;21895;47.072;15.132;2024-03-23T12:40:52;6.43;;;3.50;;
20928;SDS011;21895;47.072;15.132;2024-03-23T12:43:18;5.47;;;2.85;;
20928;SDS011;21895;47.072;15.132;2024-03-23T12:45:48;7.62;;;3.37;;
20928;SDS011;21895;47.072;15.132;2024-03-23T12:48:16;5.03;;;3.22;;
20928;SDS011;21895;47.072;15.132;2024-03-23T12:50:42;7.03;;;3.30;;
20928;SDS011;21895;47.072;15.132;2024-03-23T12:53:09;7.22;;;3.25;;
20928;SDS011;21895;47.072;15.132;2024-03-23T12:55:36;6.97;;;3.58;;
20928;SDS011;21895;47.072;15.132;2024-03-23T12:58:03;6.70;;;2.97;;
20928;SDS011;21895;47.072;15.132;2024-03-23T13:00:30;4.43;;;2.62;;
20928;SDS011;21895;47.072;15.132;2024-03-23T13:02:56;7.00;;;3.33;;
20928;SDS011;21895;47.072;15.132;2024-03-23T13:05:23;7.40;;;3.40;;
20928;SDS011;21895;47.072;15.132;2024-03-23T13:07:50;5.35;;;3.03;;
20928;SDS011;21895;47.072;15.132;2024-03-23T13:10:16;6.78;;;2.95;;
20928;SDS011;21895;47.072;15.132;2024-03-23T13:12:43;7.70;;;3.08;;
20928;SDS011;21895;47.072;15.132;2024-03-23T13:15:09;9.80;;;3.42;;
20928;SDS011;21895;47.072;15.132;2024-03-23T13:17:36;8.43;;;3.20;;
20928;SDS011;21895;47.072;15.132;2024-03-23T13:20:03;5.45;;;3.22;;
20928;SDS011;21895;47.072;15.132;2024-03-23T13:22:30;5.35;;;3.12;;
20928;SDS011;21895;47.072;15.132;2024-03-23T13:24:57;8.23;;;3.65;;
20928;SDS011;21895;47.072;15.132;2024-03-23T13:27:25;7.95;;;3.65;;
20928;SDS011;21895;47.072;15.132;2024-03-23T13:29:51;8.70;;;3.95;;
20928;SDS011;21895;47.072;15.132;2024-03-23T13:32:18;6.47;;;3.40;;
20928;SDS011;21895;47.072;15.132;2024-03-23T13:34:45;4.43;;;2.90;;
20928;SDS011;21895;47.072;15.132;2024-03-23T13:37:11;6.80;;;3.42;;
20928;SDS011;21895;47.072;15.132;2024-03-23T13:39:38;6.00;;;3.25;;
20928;SDS011;21895;47.072;15.132;2024-03-23T13:42:06;8.50;;;3.55;;
20928;SDS011;21895;47.072;15.132;2024-03-23T13:44:34;6.43;;;3.45;;
20928;SDS011;21895;47.072;15.132;2024-03-23T13:47:02;7.47;;;3.47;;
20928;SDS011;21895;47.072;15.132;2024-03-23T13:49:29;8.63;;;3.97;;
20928;SDS011;21895;47.072;15.132;2024-03-23T13:51:57;6.12;;;3.40;;
20928;SDS011;21895;47.072;15.132;2024-03-23T13:54:27;6.65;;;3.25;;
20928;SDS011;21895;47.072;15.132;2024-03-23T13:56:55;7.65;;;3.90;;
20928;SDS011;21895;47.072;15.132;2024-03-23T13:59:22;8.07;;;3.92;;
20928;SDS011;21895;47.072;15.132;2024-03-23T14:01:49;7.45;;;3.17;;
20928;SDS011;21895;47.072;15.132;2024-03-23T14:04:21;7.40;;;3.50;;
20928;SDS011;21895;47.072;15.132;2024-03-23T14:06:48;6.55;;;3.35;;
20928;SDS011;21895;47.072;15.132;2024-03-23T14:09:15;9.35;;;3.78;;
20928;SDS011;21895;47.072;15.132;2024-03-23T14:11:46;7.53;;;3.65;;
20928;SDS011;21895;47.072;15.132;2024-03-23T14:14:13;7.82;;;3.83;;
20928;SDS011;21895;47.072;15.132;2024-03-23T14:16:43;9.18;;;4.05;;
20928;SDS011;21895;47.072;15.132;2024-03-23T14:19:10;7.10;;;3.87;;
20928;SDS011;21895;47.072;15.132;2024-03-23T14:21:36;6.60;;;4.20;;
20928;SDS011;21895;47.072;15.132;2024-03-23T14:24:04;8.68;;;3.65;;
20928;SDS011;21895;47.072;15.132;2024-03-23T14:26:31;6.30;;;3.10;;
20928;SDS011;21895;47.072;15.132;2024-03-23T14:28:57;5.75;;;3.30;;
20928;SDS011;21895;47.072;15.132;2024-03-23T14:31:24;8.98;;;3.70;;
20928;SDS011;21895;47.072;15.132;2024-03-23T14:33:50;8.60;;;3.70;;
20928;SDS011;21895;47.072;15.132;2024-03-23T14:36:17;7.12;;;3.42;;
20928;SDS011;21895;47.072;15.132;2024-03-23T14:38:47;7.55;;;3.80;;
20928;SDS011;21895;47.072;15.132;2024-03-23T14:41:14;8.90;;;4.05;;
20928;SDS011;21895;47.072;15.132;2024-03-23T14:43:44;8.77;;;3.15;;
20928;SDS011;21895;47.072;15.132;2024-03-23T14:46:14;6.43;;;3.15;;
20928;SDS011;21895;47.072;15.132;2024-03-23T14:48:42;6.05;;;2.95;;
20928;SDS011;21895;47.072;15.132;2024-03-23T14:51:11;7.50;;;3.55;;
20928;SDS011;21895;47.072;15.132;2024-03-23T14:53:39;6.25;;;3.10;;
20928;SDS011;21895;47.072;15.132;2024-03-23T14:56:07;4.35;;;2.92;;
20928;SDS011;21895;47.072;15.132;2024-03-23T14:58:37;7.00;;;3.60;;
20928;SDS011;21895;47.072;15.132;2024-03-23T15:01:07;9.63;;;3.50;;
20928;SDS011;21895;47.072;15.132;2024-03-23T15:03:38;8.95;;;3.78;;
20928;SDS011;21895;47.072;15.132;2024-03-23T15:06:05;4.70;;;2.78;;
20928;SDS011;21895;47.072;15.132;2024-03-23T15:08:34;5.62;;;3.45;;
20928;SDS011;21895;47.072;15.132;2024-03-23T15:11:02;6.28;;;3.35;;
20928;SDS011;21895;47.072;15.132;2024-03-23T15:13:34;6.93;;;3.12;;
20928;SDS011;21895;47.072;15.132;2024-03-23T15:16:02;9.40;;;3.47;;
20928;SDS011;21895;47.072;15.132;2024-03-23T15:18:30;5.37;;;3.05;;
20928;SDS011;21895;47.072;15.132;2024-03-23T15:21:01;2.00;;;1.37;;
20928;SDS011;21895;47.072;15.132;2024-03-23T15:23:33;1.23;;;0.82;;
20928;SDS011;21895;47.072;15.132;2024-03-23T15:26:00;0.98;;;0.70;;
20928;SDS011;21895;47.072;15.132;2024-03-23T15:28:28;0.50;;;0.50;;
20928;SDS011;21895;47.072;15.132;2024-03-23T15:31:07;0.52;;;0.52;;
20928;SDS011;21895;47.072;15.132;2024-03-23T15:33:37;0.70;;;0.60;;
20928;SDS011;21895;47.072;15.132;2024-03-23T15:36:05;0.50;;;0.40;;
20928;SDS011;21895;47.072;15.132;2024-03-23T15:38:32;1.67;;;0.70;;